createdAt,value
2023-03-29T00:00:42.163Z,98830.88
2023-03-29T00:03:19.143Z,98831.31
2023-03-29T00:05:49.058Z,98825.50
2023-03-29T00:08:18.583Z,98825.69
2023-03-29T00:10:50.139Z,98818.56
2023-03-29T00:13:19.405Z,98823.13
2023-03-29T00:15:47.618Z,98833.50
2023-03-29T00:18:16.417Z,98830.06
2023-03-29T00:20:44.817Z,98827.03
2023-03-29T00:23:14.625Z,98844.19
2023-03-29T00:25:46.150Z,98837.81
2023-03-29T00:28:22.578Z,98831.72
2023-03-29T00:30:51.530Z,98833.34
2023-03-29T00:33:20.946Z,98821.09
2023-03-29T00:35:50.118Z,98829.69
2023-03-29T00:38:20.205Z,98828.19
2023-03-29T00:40:48.592Z,98819.59
2023-03-29T00:43:17.208Z,98830.91
2023-03-29T00:45:45.569Z,98822.53
2023-03-29T00:48:17.194Z,98815.19
2023-03-29T00:50:49.058Z,98818.19
2023-03-29T00:53:21.910Z,98815.25
2023-03-29T00:55:54.129Z,98817.44
2023-03-29T00:58:26.427Z,98812.53
2023-03-29T01:01:02.602Z,98814.97
2023-03-29T01:03:33.446Z,98809.69
2023-03-29T01:06:05.146Z,98811.44
2023-03-29T01:08:38.818Z,98811.44
2023-03-29T01:11:11.525Z,98810.50
2023-03-29T01:13:44.821Z,98805.59
2023-03-29T01:16:13.885Z,98804.91
2023-03-29T01:18:43.051Z,98801.38
2023-03-29T01:21:19.593Z,98808.16
2023-03-29T01:24:10.894Z,98810.06
2023-03-29T01:26:46.869Z,98802.72
2023-03-29T01:29:18.899Z,98803.22
2023-03-29T01:31:50.103Z,98799.38
2023-03-29T01:34:25.628Z,98799.44
2023-03-29T01:37:00.419Z,98792.91
2023-03-29T01:39:29.036Z,98788.19
2023-03-29T01:42:07.037Z,98784.22
2023-03-29T01:44:43.093Z,98780.06
2023-03-29T01:47:17.209Z,98780.06
2023-03-29T01:49:51.028Z,98778.56
2023-03-29T01:52:23.600Z,98770.53
2023-03-29T01:54:55.551Z,98780.06
2023-03-29T01:57:25.189Z,98771.25
2023-03-29T01:59:56.495Z,98781.03
2023-03-29T02:02:25.935Z,98778.53
2023-03-29T02:04:56.213Z,98788.69
2023-03-29T02:07:27.162Z,98784.47
2023-03-29T02:09:55.679Z,98776.84
2023-03-29T02:12:24.150Z,98780.22
2023-03-29T02:14:52.787Z,98782.75
2023-03-29T02:17:24.191Z,98779.69
2023-03-29T02:19:55.918Z,98786.59
2023-03-29T02:22:25.973Z,98780.47
2023-03-29T02:24:56.796Z,98789.63
2023-03-29T02:27:25.059Z,98784.78
2023-03-29T02:29:53.665Z,98780.31
2023-03-29T02:32:26.465Z,98785.75
2023-03-29T02:34:59.028Z,98788.34
2023-03-29T02:37:30.346Z,98780.41
2023-03-29T02:40:00.234Z,98783.31
2023-03-29T02:42:29.301Z,98789.75
2023-03-29T02:45:00.616Z,98788.94
2023-03-29T02:47:32.765Z,98785.75
2023-03-29T02:50:01.539Z,98790.88
2023-03-29T02:52:34.266Z,98795.75
2023-03-29T02:55:04.201Z,98790.44
2023-03-29T02:57:32.547Z,98785.69
2023-03-29T03:00:01.609Z,98790.44
2023-03-29T03:02:31.436Z,98796.94
2023-03-29T03:05:00.205Z,98791.03
2023-03-29T03:07:28.810Z,98784.88
2023-03-29T03:09:57.881Z,98790.34
2023-03-29T03:12:26.375Z,98792.63
2023-03-29T03:14:54.951Z,98792.56
2023-03-29T03:17:23.523Z,98798.41
2023-03-29T03:19:53.955Z,98801.00
2023-03-29T03:22:22.211Z,98795.69
2023-03-29T03:24:50.735Z,98786.06
2023-03-29T03:27:19.083Z,98786.06
2023-03-29T03:29:48.705Z,98779.31
2023-03-29T03:32:17.572Z,98780.31
2023-03-29T03:34:46.083Z,98786.66
2023-03-29T03:37:15.730Z,98781.88
2023-03-29T03:39:44.396Z,98779.03
2023-03-29T03:42:12.812Z,98778.28
2023-03-29T03:44:42.005Z,98786.31
2023-03-29T03:47:10.377Z,98784.72
2023-03-29T03:49:38.940Z,98772.66
2023-03-29T03:52:07.108Z,98785.38
2023-03-29T03:54:37.180Z,98779.69
2023-03-29T03:57:05.624Z,98781.31
2023-03-29T03:59:34.361Z,98781.31
2023-03-29T04:02:02.659Z,98784.19
2023-03-29T04:04:31.489Z,98790.03
2023-03-29T04:07:02.807Z,98785.97
2023-03-29T04:09:31.642Z,98788.53
2023-03-29T04:12:02.035Z,98782.94
2023-03-29T04:14:32.280Z,98775.63
2023-03-29T04:17:00.556Z,98775.41
2023-03-29T04:19:29.097Z,98781.19
2023-03-29T04:21:57.507Z,98779.75
2023-03-29T04:24:26.174Z,98767.31
2023-03-29T04:26:54.365Z,98774.81
2023-03-29T04:29:24.231Z,98778.13
2023-03-29T04:31:52.790Z,98771.28
2023-03-29T04:34:21.676Z,98766.47
2023-03-29T04:36:50.343Z,98773.25
2023-03-29T04:39:19.150Z,98777.06
2023-03-29T04:41:47.448Z,98772.16
2023-03-29T04:44:16.351Z,98767.13
2023-03-29T04:46:46.174Z,98770.69
2023-03-29T04:49:14.655Z,98769.31
2023-03-29T04:51:43.600Z,98774.50
2023-03-29T04:54:12.145Z,98772.84
2023-03-29T04:56:40.620Z,98775.38
2023-03-29T04:59:11.043Z,98771.44
2023-03-29T05:01:39.710Z,98767.31
2023-03-29T05:04:12.559Z,98765.69
2023-03-29T05:06:41.236Z,98770.34
2023-03-29T05:09:10.746Z,98768.00
2023-03-29T05:11:38.910Z,98761.63
2023-03-29T05:14:09.368Z,98764.84
2023-03-29T05:16:38.153Z,98754.75
2023-03-29T05:19:06.860Z,98757.22
2023-03-29T05:21:36.725Z,98759.63
2023-03-29T05:24:06.237Z,98760.44
2023-03-29T05:26:34.771Z,98763.72
2023-03-29T05:29:04.558Z,98757.63
2023-03-29T05:31:33.155Z,98757.44
2023-03-29T05:34:02.474Z,98757.97
2023-03-29T05:36:30.818Z,98758.81
2023-03-29T05:39:02.048Z,98757.16
2023-03-29T05:41:30.834Z,98756.88
2023-03-29T05:43:59.580Z,98754.78
2023-03-29T05:46:28.199Z,98760.69
2023-03-29T05:48:56.886Z,98758.94
2023-03-29T05:51:25.173Z,98770.22
2023-03-29T05:53:53.864Z,98755.38
2023-03-29T05:56:23.579Z,98764.09
2023-03-29T05:58:56.188Z,98751.34
2023-03-29T06:01:24.784Z,98761.03
2023-03-29T06:03:53.798Z,98762.81
2023-03-29T06:06:22.389Z,98767.59
2023-03-29T06:08:51.013Z,98765.09
2023-03-29T06:11:19.637Z,98764.81
2023-03-29T06:13:49.779Z,98769.94
2023-03-29T06:16:18.205Z,98759.56
2023-03-29T06:18:48.024Z,98767.34
2023-03-29T06:21:16.893Z,98764.22
2023-03-29T06:23:45.469Z,98770.25
2023-03-29T06:26:14.069Z,98767.09
2023-03-29T06:28:45.512Z,98773.19
2023-03-29T06:31:15.764Z,98775.03
2023-03-29T06:33:44.470Z,98772.50
2023-03-29T06:36:16.108Z,98771.94
2023-03-29T06:38:46.096Z,98773.41
2023-03-29T06:41:15.120Z,98767.84
2023-03-29T06:43:43.653Z,98771.22
2023-03-29T06:46:13.653Z,98774.06
2023-03-29T06:48:43.845Z,98775.22
2023-03-29T06:51:12.296Z,98773.25
2023-03-29T06:53:41.264Z,98772.00
2023-03-29T06:56:10.387Z,98773.16
2023-03-29T06:58:39.225Z,98773.50
2023-03-29T07:01:08.104Z,98766.69
2023-03-29T07:03:36.751Z,98764.66
2023-03-29T07:06:11.768Z,98761.81
2023-03-29T07:08:43.753Z,98767.63
2023-03-29T07:11:13.972Z,98768.44
2023-03-29T07:13:43.183Z,98769.78
2023-03-29T07:16:13.179Z,98759.75
2023-03-29T07:18:42.998Z,98762.47
2023-03-29T07:21:13.825Z,98761.47
2023-03-29T07:23:42.601Z,98761.31
2023-03-29T07:26:12.133Z,98754.22
2023-03-29T07:28:40.684Z,98758.72
2023-03-29T07:31:11.096Z,98761.72
2023-03-29T07:33:40.921Z,98757.84
2023-03-29T07:36:09.964Z,98753.59
2023-03-29T07:38:39.947Z,98758.41
2023-03-29T07:41:08.749Z,98752.66
2023-03-29T07:43:37.296Z,98754.41
2023-03-29T07:46:07.001Z,98749.09
2023-03-29T07:48:37.227Z,98761.88
2023-03-29T07:51:06.228Z,98755.34
2023-03-29T07:53:35.100Z,98764.91
2023-03-29T07:56:05.650Z,98758.41
2023-03-29T07:58:34.218Z,98760.91
2023-03-29T08:01:02.710Z,98762.31
2023-03-29T08:03:31.832Z,98751.31
2023-03-29T08:06:03.048Z,98759.28
2023-03-29T08:08:32.017Z,98753.91
2023-03-29T08:11:00.473Z,98745.94
2023-03-29T08:13:30.841Z,98754.31
2023-03-29T08:15:59.195Z,98744.22
2023-03-29T08:18:27.777Z,98754.63
2023-03-29T08:20:56.189Z,98744.28
2023-03-29T08:23:24.688Z,98748.72
2023-03-29T08:25:53.747Z,98733.41
2023-03-29T08:28:22.419Z,98734.56
2023-03-29T08:30:52.906Z,98736.34
2023-03-29T08:33:22.411Z,98736.44
2023-03-29T08:35:51.519Z,98726.50
2023-03-29T08:38:21.770Z,98731.78
2023-03-29T08:40:50.766Z,98724.66
2023-03-29T08:43:51.743Z,98721.03
2023-03-29T08:46:34.503Z,98727.22
2023-03-29T08:49:04.718Z,98721.13
2023-03-29T08:51:34.380Z,98717.94
2023-03-29T08:54:05.545Z,98713.97
2023-03-29T08:56:36.754Z,98711.69
2023-03-29T08:59:08.063Z,98707.59
2023-03-29T09:01:38.543Z,98705.38
2023-03-29T09:04:10.147Z,98699.59
2023-03-29T09:06:40.791Z,98708.34
2023-03-29T09:09:11.707Z,98698.56
2023-03-29T09:11:48.634Z,98698.97
2023-03-29T09:14:38.052Z,98689.84
2023-03-29T09:17:16.985Z,98697.19
2023-03-29T09:19:51.018Z,98700.38
2023-03-29T09:22:24.461Z,98689.38
2023-03-29T09:24:59.715Z,98686.25
2023-03-29T09:27:31.616Z,98677.97
2023-03-29T09:30:08.590Z,98676.13
2023-03-29T09:32:42.409Z,98678.59
2023-03-29T09:35:18.740Z,98679.41
2023-03-29T09:37:49.091Z,98683.75
2023-03-29T09:40:21.084Z,98677.94
2023-03-29T09:42:51.208Z,98671.00
2023-03-29T09:45:19.962Z,98670.59
2023-03-29T09:47:51.976Z,98668.38
2023-03-29T09:50:30.761Z,98658.56
2023-03-29T09:52:59.973Z,98667.13
2023-03-29T09:55:31.275Z,98680.09
2023-03-29T09:58:02.250Z,98663.13
2023-03-29T10:00:31.039Z,98654.63
2023-03-29T10:03:01.080Z,98646.84
2023-03-29T10:05:32.649Z,98659.44
2023-03-29T10:08:02.431Z,98657.34
2023-03-29T10:10:33.110Z,98668.28
2023-03-29T10:13:01.812Z,98657.38
2023-03-29T10:15:31.651Z,98650.53
2023-03-29T10:18:03.620Z,98640.16
2023-03-29T10:20:32.449Z,98645.38
2023-03-29T10:23:00.893Z,98635.41
2023-03-29T10:25:31.616Z,98644.31
2023-03-29T10:28:05.612Z,98645.56
2023-03-29T10:30:37.335Z,98642.84
2023-03-29T10:33:09.264Z,98642.66
2023-03-29T10:35:41.600Z,98638.34
2023-03-29T10:38:13.457Z,98633.44
2023-03-29T10:40:45.131Z,98632.63
2023-03-29T10:43:15.925Z,98630.44
2023-03-29T10:45:44.945Z,98621.13
2023-03-29T10:48:16.542Z,98618.06
2023-03-29T10:50:50.423Z,98622.88
2023-03-29T10:53:24.271Z,98618.50
2023-03-29T10:56:02.332Z,98617.56
2023-03-29T10:58:40.866Z,98608.97
2023-03-29T11:01:13.497Z,98599.78
2023-03-29T11:04:09.374Z,98611.84
2023-03-29T11:06:42.232Z,98610.25
2023-03-29T11:09:21.487Z,98595.75
2023-03-29T11:12:15.099Z,98590.19
2023-03-29T11:14:54.528Z,98587.88
2023-03-29T11:17:33.805Z,98578.19
2023-03-29T11:20:12.700Z,98564.47
2023-03-29T11:22:48.660Z,98577.97
2023-03-29T11:25:29.603Z,98570.72
2023-03-29T11:28:09.831Z,98559.13
2023-03-29T11:30:44.573Z,98557.63
2023-03-29T11:33:33.897Z,98549.69
2023-03-29T11:36:13.399Z,98552.13
2023-03-29T11:38:48.124Z,98541.78
2023-03-29T11:41:21.205Z,98542.31
2023-03-29T11:43:53.689Z,98549.16
2023-03-29T11:46:27.366Z,98543.78
2023-03-29T11:49:00.313Z,98531.56
2023-03-29T11:51:33.977Z,98533.81
2023-03-29T11:54:05.067Z,98530.91
2023-03-29T11:56:37.972Z,98523.47
2023-03-29T11:59:13.304Z,98522.63
2023-03-29T12:01:44.878Z,98520.38
2023-03-29T12:04:17.894Z,98516.97
2023-03-29T12:06:52.518Z,98513.63
2023-03-29T12:09:30.241Z,98520.66
2023-03-29T12:12:05.278Z,98523.03
2023-03-29T12:14:45.129Z,98525.94
2023-03-29T12:17:16.837Z,98518.06
2023-03-29T12:19:50.574Z,98523.16
2023-03-29T12:22:20.999Z,98518.50
2023-03-29T12:24:53.574Z,98512.47
2023-03-29T12:27:26.786Z,98513.75
2023-03-29T12:30:23.075Z,98516.97
2023-03-29T12:33:07.429Z,98511.03
2023-03-29T12:35:43.391Z,98515.91
2023-03-29T12:38:18.112Z,98497.31
2023-03-29T12:40:48.520Z,98504.81
2023-03-29T12:43:22.412Z,98515.84
2023-03-29T12:45:56.269Z,98501.88
2023-03-29T12:48:26.959Z,98499.81
2023-03-29T12:51:02.035Z,98493.78
2023-03-29T12:53:35.820Z,98494.22
2023-03-29T12:56:14.571Z,98491.00
2023-03-29T12:58:51.874Z,98484.47
2023-03-29T13:01:27.816Z,98477.16
2023-03-29T13:04:15.755Z,98477.50
2023-03-29T13:07:03.076Z,98479.91
2023-03-29T13:09:51.431Z,98472.09
2023-03-29T13:12:26.822Z,98472.50
2023-03-29T13:14:57.520Z,98470.13
2023-03-29T13:17:29.129Z,98468.06
2023-03-29T13:20:15.750Z,98463.84
2023-03-29T13:22:53.325Z,98460.41
2023-03-29T13:25:36.642Z,98460.41
2023-03-29T13:28:10.565Z,98451.59
2023-03-29T13:30:47.664Z,98456.91
2023-03-29T13:33:27.360Z,98456.91
2023-03-29T13:36:05.297Z,98452.25
2023-03-29T13:38:46.419Z,98457.56
2023-03-29T13:41:29.234Z,98452.91
2023-03-29T13:43:58.904Z,98438.94
2023-03-29T13:46:41.092Z,98434.34
2023-03-29T13:49:21.002Z,98439.88
2023-03-29T13:52:12.676Z,98434.44
2023-03-29T13:54:44.226Z,98430.69
2023-03-29T13:57:18.533Z,98432.34
2023-03-29T13:59:55.892Z,98431.78
2023-03-29T14:02:35.216Z,98423.50
2023-03-29T14:05:04.849Z,98417.38
2023-03-29T14:07:35.555Z,98423.53
2023-03-29T14:10:07.101Z,98421.06
2023-03-29T14:12:41.720Z,98424.31
2023-03-29T14:15:21.740Z,98418.03
2023-03-29T14:18:01.990Z,98425.69
2023-03-29T14:20:35.157Z,98418.66
2023-03-29T14:23:11.067Z,98407.72
2023-03-29T14:25:41.657Z,98410.09
2023-03-29T14:28:26.061Z,98403.13
2023-03-29T14:30:58.087Z,98402.66
2023-03-29T14:33:27.783Z,98418.00
2023-03-29T14:36:01.123Z,98411.59
2023-03-29T14:38:30.523Z,98412.47
2023-03-29T14:41:01.422Z,98401.41
2023-03-29T14:43:35.764Z,98395.84
2023-03-29T14:46:06.639Z,98404.66
2023-03-29T14:48:36.309Z,98393.28
2023-03-29T14:51:08.162Z,98402.06
2023-03-29T14:53:38.221Z,98393.75
2023-03-29T14:56:08.381Z,98386.09
2023-03-29T14:58:38.636Z,98388.03
2023-03-29T15:01:09.226Z,98382.84
2023-03-29T15:03:50.740Z,98390.66
2023-03-29T15:06:20.075Z,98383.28
2023-03-29T15:09:02.053Z,98387.25
2023-03-29T15:11:34.554Z,98383.78
2023-03-29T15:14:06.901Z,98374.56
2023-03-29T15:16:39.222Z,98384.00
2023-03-29T15:19:08.183Z,98379.88
2023-03-29T15:21:37.084Z,98378.69
2023-03-29T15:24:06.729Z,98376.41
2023-03-29T15:26:37.666Z,98374.47
2023-03-29T15:29:13.424Z,98375.47
2023-03-29T15:31:43.493Z,98373.41
2023-03-29T15:34:13.762Z,98373.38
2023-03-29T15:36:43.512Z,98372.28
2023-03-29T15:39:13.507Z,98368.41
2023-03-29T15:41:42.447Z,98371.03
2023-03-29T15:44:12.861Z,98369.09
2023-03-29T15:46:42.034Z,98368.19
2023-03-29T15:49:12.540Z,98358.56
2023-03-29T15:51:42.265Z,98363.09
2023-03-29T15:54:13.014Z,98358.13
2023-03-29T15:56:47.815Z,98360.59
2023-03-29T15:59:22.049Z,98346.38
2023-03-29T16:01:54.865Z,98348.56
2023-03-29T16:04:23.885Z,98355.78
2023-03-29T16:06:55.455Z,98349.78
2023-03-29T16:09:25.563Z,98356.91
2023-03-29T16:11:54.340Z,98349.63
2023-03-29T16:14:27.295Z,98348.66
2023-03-29T16:16:58.329Z,98340.56
2023-03-29T16:19:28.291Z,98345.91
2023-03-29T16:21:57.523Z,98342.19
2023-03-29T16:24:28.203Z,98329.94
2023-03-29T16:27:01.632Z,98338.50
2023-03-29T16:29:31.935Z,98339.06
2023-03-29T16:32:00.992Z,98344.72
2023-03-29T16:34:30.314Z,98342.50
2023-03-29T16:36:59.475Z,98340.75
2023-03-29T16:39:28.493Z,98344.38
2023-03-29T16:41:57.583Z,98344.38
2023-03-29T16:44:28.469Z,98342.53
2023-03-29T16:46:59.279Z,98356.03
2023-03-29T16:49:32.704Z,98355.41
2023-03-29T16:52:01.854Z,98344.88
2023-03-29T16:54:33.744Z,98347.59
2023-03-29T16:57:02.576Z,98353.59
2023-03-29T16:59:31.464Z,98345.84
2023-03-29T17:02:01.831Z,98351.63
2023-03-29T17:04:30.423Z,98366.41
2023-03-29T17:07:00.541Z,98364.59
2023-03-29T17:09:30.007Z,98355.00
2023-03-29T17:11:58.941Z,98359.50
2023-03-29T17:14:27.542Z,98355.63
2023-03-29T17:16:59.544Z,98356.19
2023-03-29T17:19:29.596Z,98356.44
2023-03-29T17:21:58.245Z,98361.81
2023-03-29T17:24:26.688Z,98359.03
2023-03-29T17:26:55.558Z,98366.38
2023-03-29T17:29:24.074Z,98369.34
2023-03-29T17:31:53.881Z,98373.09
2023-03-29T17:34:22.604Z,98377.50
2023-03-29T17:36:56.492Z,98376.00
2023-03-29T17:39:27.433Z,98381.97
2023-03-29T17:41:56.336Z,98376.88
2023-03-29T17:44:25.037Z,98378.59
2023-03-29T17:46:56.926Z,98374.78
2023-03-29T17:49:25.556Z,98378.03
2023-03-29T17:51:55.894Z,98382.47
2023-03-29T17:54:24.617Z,98376.94
2023-03-29T17:56:53.393Z,98371.66
2023-03-29T17:59:21.929Z,98371.50
2023-03-29T18:01:51.446Z,98376.16
2023-03-29T18:04:20.321Z,98370.09
2023-03-29T18:06:49.280Z,98372.63
2023-03-29T18:09:19.356Z,98379.34
2023-03-29T18:11:48.113Z,98382.41
2023-03-29T18:14:16.639Z,98388.16
2023-03-29T18:16:45.645Z,98395.63
2023-03-29T18:19:14.125Z,98401.19
2023-03-29T18:21:43.296Z,98406.78
2023-03-29T18:24:11.811Z,98398.75
2023-03-29T18:26:42.049Z,98404.34
2023-03-29T18:29:10.845Z,98394.22
2023-03-29T18:31:40.041Z,98386.78
2023-03-29T18:34:08.451Z,98394.59
2023-03-29T18:36:37.206Z,98389.97
2023-03-29T18:39:06.193Z,98395.78
2023-03-29T18:41:35.753Z,98387.59
2023-03-29T18:44:07.773Z,98385.09
2023-03-29T18:46:36.589Z,98380.44
2023-03-29T18:49:04.945Z,98375.25
2023-03-29T18:51:34.384Z,98373.81
2023-03-29T18:54:04.327Z,98381.34
2023-03-29T18:56:33.059Z,98386.38
2023-03-29T18:59:05.192Z,98371.72
2023-03-29T19:01:35.190Z,98382.50
2023-03-29T19:04:03.564Z,98382.69
2023-03-29T19:06:32.141Z,98375.06
2023-03-29T19:09:02.134Z,98375.81
2023-03-29T19:11:30.953Z,98385.09
2023-03-29T19:14:01.898Z,98382.34
2023-03-29T19:16:30.608Z,98380.88
2023-03-29T19:19:00.362Z,98383.50
2023-03-29T19:21:31.730Z,98385.72
2023-03-29T19:24:01.089Z,98387.88
2023-03-29T19:26:29.809Z,98396.91
2023-03-29T19:28:58.268Z,98395.22
2023-03-29T19:31:27.687Z,98400.75
2023-03-29T19:33:56.288Z,98397.03
2023-03-29T19:36:26.305Z,98401.78
2023-03-29T19:38:55.799Z,98390.72
2023-03-29T19:41:24.608Z,98382.81
2023-03-29T19:43:52.903Z,98387.31
2023-03-29T19:46:21.566Z,98387.69
2023-03-29T19:48:51.854Z,98391.38
2023-03-29T19:51:20.696Z,98387.28
2023-03-29T19:53:50.370Z,98383.78
2023-03-29T19:56:19.052Z,98385.38
2023-03-29T19:58:48.279Z,98385.31
2023-03-29T20:01:21.057Z,98376.19
2023-03-29T20:03:50.068Z,98382.66
2023-03-29T20:06:19.668Z,98381.63
2023-03-29T20:08:48.224Z,98385.56
2023-03-29T20:11:23.774Z,98376.06
2023-03-29T20:13:52.140Z,98376.56
2023-03-29T20:16:24.442Z,98373.81
2023-03-29T20:18:54.140Z,98372.63
2023-03-29T20:21:22.901Z,98366.38
2023-03-29T20:23:51.413Z,98371.91
2023-03-29T20:26:21.531Z,98364.09
2023-03-29T20:28:50.152Z,98362.44
2023-03-29T20:31:18.766Z,98375.31
2023-03-29T20:33:47.070Z,98376.13
2023-03-29T20:36:18.691Z,98368.97
2023-03-29T20:38:46.879Z,98367.16
2023-03-29T20:41:15.358Z,98361.03
2023-03-29T20:43:46.410Z,98357.66
2023-03-29T20:46:18.531Z,98357.88
2023-03-29T20:48:53.465Z,98359.88
2023-03-29T20:51:22.764Z,98359.94
2023-03-29T20:53:51.186Z,98353.09
2023-03-29T20:56:20.934Z,98358.16
2023-03-29T20:58:50.814Z,98354.53
2023-03-29T21:01:21.813Z,98355.16
2023-03-29T21:03:50.631Z,98353.41
2023-03-29T21:06:19.348Z,98354.78
2023-03-29T21:08:48.450Z,98350.78
2023-03-29T21:11:17.015Z,98350.38
2023-03-29T21:13:45.221Z,98339.22
2023-03-29T21:16:15.774Z,98336.56
2023-03-29T21:18:44.156Z,98335.63
2023-03-29T21:21:13.192Z,98336.09
2023-03-29T21:23:41.501Z,98336.16
2023-03-29T21:26:10.134Z,98335.22
2023-03-29T21:28:38.762Z,98325.91
2023-03-29T21:31:08.151Z,98326.81
2023-03-29T21:33:38.038Z,98332.78
2023-03-29T21:36:08.332Z,98329.69
2023-03-29T21:38:36.849Z,98329.66
2023-03-29T21:41:06.920Z,98323.94
2023-03-29T21:43:35.595Z,98325.22
2023-03-29T21:46:04.511Z,98326.13
2023-03-29T21:48:33.459Z,98323.97
2023-03-29T21:51:03.786Z,98320.78
2023-03-29T21:53:32.231Z,98328.88
2023-03-29T21:56:00.726Z,98322.00
2023-03-29T21:58:29.039Z,98323.00
2023-03-29T22:00:57.904Z,98319.94
2023-03-29T22:03:26.308Z,98315.53
2023-03-29T22:06:03.694Z,98316.06
2023-03-29T22:08:32.196Z,98305.88
2023-03-29T22:11:08.204Z,98299.88
2023-03-29T22:13:36.835Z,98309.56
2023-03-29T22:16:06.365Z,98299.28
2023-03-29T22:18:43.817Z,98305.06
2023-03-29T22:21:15.723Z,98301.31
2023-03-29T22:23:44.860Z,98297.53
2023-03-29T22:26:15.336Z,98282.56
2023-03-29T22:28:43.724Z,98294.31
2023-03-29T22:31:14.752Z,98292.06
2023-03-29T22:33:43.366Z,98295.66
2023-03-29T22:36:18.295Z,98293.47
2023-03-29T22:38:47.540Z,98283.59
2023-03-29T22:41:17.286Z,98283.22
2023-03-29T22:43:45.656Z,98282.84
2023-03-29T22:46:15.244Z,98279.59
2023-03-29T22:48:43.465Z,98289.13
2023-03-29T22:51:12.173Z,98284.47
2023-03-29T22:53:41.979Z,98278.13
2023-03-29T22:56:10.701Z,98278.78
2023-03-29T22:58:40.404Z,98277.81
2023-03-29T23:01:09.391Z,98277.09
2023-03-29T23:03:38.054Z,98272.69
2023-03-29T23:06:07.250Z,98281.88
2023-03-29T23:08:36.533Z,98273.28
2023-03-29T23:11:07.515Z,98260.84
2023-03-29T23:13:36.261Z,98274.31
2023-03-29T23:16:05.424Z,98260.56
2023-03-29T23:18:37.551Z,98268.56
2023-03-29T23:21:09.062Z,98263.81
2023-03-29T23:23:37.544Z,98262.44
2023-03-29T23:26:10.463Z,98260.97
2023-03-29T23:28:39.045Z,98259.28
2023-03-29T23:31:10.656Z,98262.13
2023-03-29T23:33:40.427Z,98252.31
2023-03-29T23:36:11.102Z,98259.03
2023-03-29T23:38:40.711Z,98254.75
2023-03-29T23:41:12.906Z,98256.41
2023-03-29T23:43:43.933Z,98250.59
2023-03-29T23:46:14.180Z,98252.84
2023-03-29T23:48:46.123Z,98255.88
2023-03-29T23:51:14.713Z,98250.16
2023-03-29T23:53:43.027Z,98249.34
2023-03-29T23:56:13.368Z,98252.31
2023-03-29T23:58:41.565Z,98243.19
